createdAt,value
2018-07-31T00:01:40.501Z,94832.98
2018-07-31T00:04:06.843Z,94831.91
2018-07-31T00:06:33.263Z,94826.44
2018-07-31T00:08:59.614Z,94825.78
2018-07-31T00:11:26.017Z,94829.17
2018-07-31T00:13:52.364Z,94829.28
2018-07-31T00:16:18.784Z,94826.84
2018-07-31T00:18:45.140Z,94831.39
2018-07-31T00:21:11.640Z,94834.22
2018-07-31T00:23:38.002Z,94830.58
2018-07-31T00:26:04.390Z,94835.31
2018-07-31T00:28:30.790Z,94833.86
2018-07-31T00:30:57.176Z,94834.92
2018-07-31T00:33:23.614Z,94842.23
2018-07-31T00:35:49.942Z,94850.37
2018-07-31T00:38:16.340Z,94857.11
2018-07-31T00:40:42.728Z,94854.45
2018-07-31T00:43:09.174Z,94854.18
2018-07-31T00:45:35.612Z,94858.45
2018-07-31T00:48:02.073Z,94850.84
2018-07-31T00:50:28.490Z,94851.80
2018-07-31T00:52:54.920Z,94848.17
2018-07-31T00:55:21.328Z,94856.13
2018-07-31T00:57:47.707Z,94854.37
2018-07-31T01:00:14.052Z,94853.65
2018-07-31T01:02:40.460Z,94849.16
2018-07-31T01:05:06.831Z,94858.34
2018-07-31T01:07:33.211Z,94855.30
2018-07-31T01:09:59.578Z,94850.75
2018-07-31T01:12:25.926Z,94843.48
2018-07-31T01:14:52.328Z,94836.80
2018-07-31T01:17:18.669Z,94834.48
2018-07-31T01:19:45.005Z,94830.86
2018-07-31T01:22:11.413Z,94828.70
2018-07-31T01:24:37.783Z,94828.20
2018-07-31T01:27:04.196Z,94827.91
2018-07-31T01:29:30.550Z,94827.69
2018-07-31T01:31:56.977Z,94825.63
2018-07-31T01:34:23.321Z,94830.31
2018-07-31T01:36:49.729Z,94830.20
2018-07-31T01:39:16.087Z,94828.70
2018-07-31T01:41:42.446Z,94827.33
2018-07-31T01:44:08.850Z,94815.33
2018-07-31T01:46:35.193Z,94819.96
2018-07-31T01:49:01.530Z,94821.95
2018-07-31T01:51:27.926Z,94825.71
2018-07-31T01:53:54.317Z,94821.85
2018-07-31T01:56:20.702Z,94821.55
2018-07-31T01:58:47.090Z,94817.98
2018-07-31T02:01:13.450Z,94821.49
2018-07-31T02:03:39.880Z,94813.19
2018-07-31T02:06:06.285Z,94805.52
2018-07-31T02:08:32.651Z,94814.53
2018-07-31T02:10:59.012Z,94809.23
2018-07-31T02:13:25.361Z,94808.92
2018-07-31T02:15:51.687Z,94811.63
2018-07-31T02:18:18.105Z,94809.05
2018-07-31T02:20:44.456Z,94810.72
2018-07-31T02:23:10.838Z,94810.50
2018-07-31T02:25:37.187Z,94814.80
2018-07-31T02:28:03.584Z,94815.19
2018-07-31T02:30:29.966Z,94809.57
2018-07-31T02:32:56.358Z,94814.36
2018-07-31T02:35:22.683Z,94816.95
2018-07-31T02:37:49.046Z,94812.77
2018-07-31T02:40:15.469Z,94812.95
2018-07-31T02:42:41.830Z,94815.29
2018-07-31T02:45:08.187Z,94819.67
2018-07-31T02:47:34.546Z,94818.84
2018-07-31T02:50:00.931Z,94815.17
2018-07-31T02:52:27.319Z,94814.95
2018-07-31T02:54:53.745Z,94823.17
2018-07-31T02:57:20.079Z,94822.89
2018-07-31T02:59:46.437Z,94830.42
2018-07-31T03:02:12.839Z,94833.42
2018-07-31T03:04:39.243Z,94828.61
2018-07-31T03:07:05.581Z,94830.30
2018-07-31T03:09:31.935Z,94826.62
2018-07-31T03:11:58.285Z,94827.11
2018-07-31T03:14:24.648Z,94832.31
2018-07-31T03:16:50.999Z,94824.01
2018-07-31T03:19:17.354Z,94827.11
2018-07-31T03:21:43.701Z,94833.66
2018-07-31T03:24:10.141Z,94831.02
2018-07-31T03:26:36.542Z,94828.21
2018-07-31T03:29:02.903Z,94830.20
2018-07-31T03:31:29.318Z,94829.44
2018-07-31T03:33:55.719Z,94833.05
2018-07-31T03:36:22.123Z,94832.34
2018-07-31T03:38:48.479Z,94844.68
2018-07-31T03:41:14.832Z,94846.73
2018-07-31T03:43:41.211Z,94853.03
2018-07-31T03:46:07.594Z,94859.48
2018-07-31T03:48:33.996Z,94864.28
2018-07-31T03:51:00.382Z,94857.29
2018-07-31T03:53:26.734Z,94856.77
2018-07-31T03:55:53.089Z,94853.27
2018-07-31T03:58:19.521Z,94856.99
2018-07-31T04:00:45.878Z,94865.48
2018-07-31T04:03:12.254Z,94864.47
2018-07-31T04:05:38.671Z,94868.23
2018-07-31T04:08:05.050Z,94870.64
2018-07-31T04:10:31.419Z,94877.24
2018-07-31T04:12:57.776Z,94883.55
2018-07-31T04:15:24.142Z,94873.70
2018-07-31T04:17:50.543Z,94872.56
2018-07-31T04:20:16.900Z,94876.18
2018-07-31T04:22:43.303Z,94872.59
2018-07-31T04:25:09.667Z,94877.22
2018-07-31T04:27:36.022Z,94872.02
2018-07-31T04:30:02.439Z,94881.03
2018-07-31T04:32:28.795Z,94877.91
2018-07-31T04:34:55.224Z,94883.05
2018-07-31T04:37:21.594Z,94882.81
2018-07-31T04:39:47.974Z,94882.02
2018-07-31T04:42:14.316Z,94879.25
2018-07-31T04:44:40.744Z,94892.00
2018-07-31T04:47:07.112Z,94891.89
2018-07-31T04:49:33.461Z,94891.47
2018-07-31T04:51:59.801Z,94891.06
2018-07-31T04:54:26.137Z,94891.02
2018-07-31T04:56:52.571Z,94885.61
2018-07-31T04:59:18.903Z,94885.15
2018-07-31T05:01:45.228Z,94890.66
2018-07-31T05:04:11.562Z,94890.41
2018-07-31T05:06:37.894Z,94895.27
2018-07-31T05:09:04.309Z,94894.60
2018-07-31T05:11:30.658Z,94892.39
2018-07-31T05:13:57.097Z,94897.95
2018-07-31T05:16:23.447Z,94891.51
2018-07-31T05:18:49.818Z,94896.05
2018-07-31T05:21:16.214Z,94896.83
2018-07-31T05:23:42.543Z,94890.38
2018-07-31T05:26:08.914Z,94885.86
2018-07-31T05:28:35.244Z,94892.71
2018-07-31T05:31:01.572Z,94892.55
2018-07-31T05:33:27.965Z,94894.30
2018-07-31T05:35:54.334Z,94888.80
2018-07-31T05:38:20.963Z,94885.13
2018-07-31T05:40:47.331Z,94885.45
2018-07-31T05:43:13.671Z,94881.12
2018-07-31T05:45:40.050Z,94882.55
2018-07-31T05:48:06.387Z,94889.31
2018-07-31T05:50:32.713Z,94892.36
2018-07-31T05:59:31.863Z,94893.62
2018-07-31T06:01:58.174Z,94889.03
2018-07-31T06:04:24.582Z,94886.99
2018-07-31T06:06:50.969Z,94889.42
2018-07-31T06:09:17.505Z,94894.47
2018-07-31T06:11:43.936Z,94885.93
2018-07-31T06:14:10.337Z,94889.60
2018-07-31T06:16:36.832Z,94889.53
2018-07-31T06:19:03.239Z,94894.13
2018-07-31T06:21:29.571Z,94887.69
2018-07-31T06:23:55.912Z,94889.84
2018-07-31T06:26:22.322Z,94892.48
2018-07-31T06:28:48.750Z,94897.44
2018-07-31T06:31:15.170Z,94893.09
2018-07-31T06:33:41.553Z,94899.57
2018-07-31T06:36:07.907Z,94892.89
2018-07-31T06:38:34.307Z,94896.66
2018-07-31T06:41:00.692Z,94898.09
2018-07-31T06:43:27.140Z,94912.66
2018-07-31T06:45:53.505Z,94907.50
2018-07-31T06:48:19.909Z,94913.12
2018-07-31T06:50:46.367Z,94906.52
2018-07-31T06:53:12.732Z,94910.22
2018-07-31T06:55:39.155Z,94902.69
2018-07-31T06:58:05.559Z,94912.87
2018-07-31T07:00:31.897Z,94910.84
2018-07-31T07:02:58.331Z,94904.18
2018-07-31T07:05:24.682Z,94899.95
2018-07-31T07:07:51.166Z,94904.80
2018-07-31T07:10:17.538Z,94902.80
2018-07-31T07:12:43.894Z,94905.37
2018-07-31T07:15:10.291Z,94901.96
2018-07-31T07:17:37.440Z,94898.54
2018-07-31T07:20:03.871Z,94908.86
2018-07-31T07:22:30.250Z,94904.73
2018-07-31T07:24:56.604Z,94902.80
2018-07-31T07:27:22.971Z,94908.98
2018-07-31T07:29:49.319Z,94904.94
2018-07-31T07:32:15.699Z,94908.29
2018-07-31T07:34:42.369Z,94913.28
2018-07-31T07:37:08.793Z,94908.17
2018-07-31T07:42:06.597Z,94918.39
2018-07-31T07:44:32.951Z,94912.48
2018-07-31T07:47:00.235Z,94914.92
2018-07-31T07:49:26.842Z,94910.64
2018-07-31T07:51:53.172Z,94907.44
2018-07-31T07:54:19.724Z,94912.16
2018-07-31T07:59:24.492Z,94907.90
2018-07-31T08:01:51.066Z,94911.72
2018-07-31T08:04:17.563Z,94914.02
2018-07-31T08:06:43.983Z,94918.35
2018-07-31T08:09:10.453Z,94913.68
2018-07-31T08:11:36.882Z,94910.34
2018-07-31T08:14:03.258Z,94914.20
2018-07-31T08:16:29.755Z,94914.33
2018-07-31T08:18:56.152Z,94908.66
2018-07-31T08:21:22.528Z,94916.16
2018-07-31T08:26:27.770Z,94915.28
2018-07-31T08:28:54.102Z,94914.75
2018-07-31T08:31:20.524Z,94912.63
2018-07-31T08:33:46.983Z,94911.06
2018-07-31T08:36:13.498Z,94908.98
2018-07-31T08:38:39.858Z,94912.98
2018-07-31T08:41:06.229Z,94910.11
2018-07-31T08:43:32.624Z,94909.55
2018-07-31T08:45:58.966Z,94909.41
2018-07-31T08:48:25.362Z,94909.11
2018-07-31T08:53:30.481Z,94903.83
2018-07-31T08:55:56.914Z,94903.59
2018-07-31T08:58:23.381Z,94899.28
2018-07-31T09:00:49.834Z,94903.55
2018-07-31T09:03:16.289Z,94887.87
2018-07-31T09:05:42.665Z,94885.20
2018-07-31T09:08:09.126Z,94889.56
2018-07-31T09:10:35.517Z,94888.80
2018-07-31T09:13:01.862Z,94887.66
2018-07-31T09:15:28.265Z,94885.30
2018-07-31T09:17:54.667Z,94889.72
2018-07-31T09:20:21.039Z,94881.88
2018-07-31T09:22:47.505Z,94887.00
2018-07-31T09:25:14.010Z,94886.03
2018-07-31T09:27:40.486Z,94880.97
2018-07-31T09:30:06.901Z,94882.16
2018-07-31T09:32:33.334Z,94880.59
2018-07-31T09:34:59.704Z,94883.86
2018-07-31T09:37:26.099Z,94883.17
2018-07-31T09:39:53.088Z,94884.68
2018-07-31T09:42:19.711Z,94885.42
2018-07-31T09:44:46.148Z,94881.22
2018-07-31T09:47:13.640Z,94881.22
2018-07-31T09:49:40.311Z,94877.47
2018-07-31T09:52:06.900Z,94873.33
2018-07-31T09:54:33.341Z,94877.55
2018-07-31T09:56:59.823Z,94879.80
2018-07-31T09:59:26.192Z,94870.99
2018-07-31T10:01:52.670Z,94861.73
2018-07-31T10:04:19.052Z,94868.19
2018-07-31T10:06:45.528Z,94867.33
2018-07-31T10:09:12.290Z,94862.02
2018-07-31T10:11:38.668Z,94862.23
2018-07-31T10:14:05.131Z,94858.72
2018-07-31T10:16:31.580Z,94864.95
2018-07-31T10:18:57.942Z,94847.51
2018-07-31T10:21:24.430Z,94859.33
2018-07-31T10:23:50.808Z,94861.36
2018-07-31T10:26:17.293Z,94862.44
2018-07-31T10:28:43.745Z,94859.13
2018-07-31T10:31:10.280Z,94858.50
2018-07-31T10:33:36.636Z,94856.27
2018-07-31T10:36:03.150Z,94861.55
2018-07-31T10:38:29.606Z,94852.06
2018-07-31T10:40:56.012Z,94851.70
2018-07-31T10:43:22.449Z,94855.13
2018-07-31T10:45:48.818Z,94855.79
2018-07-31T10:48:15.219Z,94853.00
2018-07-31T10:50:41.788Z,94856.46
2018-07-31T10:53:08.240Z,94854.38
2018-07-31T10:55:34.622Z,94853.42
2018-07-31T10:58:01.010Z,94856.19
2018-07-31T11:00:27.565Z,94849.25
2018-07-31T11:02:54.052Z,94844.16
2018-07-31T11:05:20.479Z,94842.67
2018-07-31T11:07:46.883Z,94844.41
2018-07-31T11:10:13.273Z,94840.19
2018-07-31T11:12:39.644Z,94841.34
2018-07-31T11:15:06.007Z,94840.92
2018-07-31T11:17:32.383Z,94835.09
2018-07-31T11:19:58.780Z,94830.52
2018-07-31T11:22:25.243Z,94829.66
2018-07-31T11:24:51.701Z,94830.69
2018-07-31T11:27:18.232Z,94829.45
2018-07-31T11:29:44.706Z,94831.91
2018-07-31T11:32:11.088Z,94823.83
2018-07-31T11:34:37.470Z,94818.28
2018-07-31T11:37:03.905Z,94820.34
2018-07-31T11:39:30.377Z,94819.44
2018-07-31T11:41:56.771Z,94828.23
2018-07-31T11:44:23.159Z,94824.76
2018-07-31T11:46:49.563Z,94826.95
2018-07-31T11:49:15.928Z,94825.42
2018-07-31T11:51:42.294Z,94825.19
2018-07-31T11:54:08.727Z,94825.02
2018-07-31T11:56:35.085Z,94826.37
2018-07-31T11:59:01.449Z,94822.05
2018-07-31T12:01:27.844Z,94822.41
2018-07-31T12:03:54.211Z,94821.41
2018-07-31T12:06:20.645Z,94824.12
2018-07-31T12:08:47.060Z,94824.59
2018-07-31T12:11:13.682Z,94826.48
2018-07-31T12:13:40.046Z,94823.23
2018-07-31T12:16:07.831Z,94830.37
2018-07-31T12:18:34.158Z,94828.49
2018-07-31T12:21:00.542Z,94830.06
2018-07-31T12:23:26.907Z,94830.33
2018-07-31T12:25:53.281Z,94830.28
2018-07-31T12:28:19.682Z,94839.59
2018-07-31T12:30:46.080Z,94845.30
2018-07-31T12:33:12.508Z,94850.41
2018-07-31T12:35:38.837Z,94871.23
2018-07-31T12:38:05.245Z,94857.00
2018-07-31T12:40:31.660Z,94861.48
2018-07-31T12:42:58.146Z,94827.48
2018-07-31T12:45:24.562Z,94867.29
2018-07-31T12:47:50.988Z,94865.98
2018-07-31T12:50:17.325Z,94876.46
2018-07-31T12:52:43.794Z,94880.38
2018-07-31T12:55:10.234Z,94879.95
2018-07-31T12:57:36.677Z,94883.61
2018-07-31T13:00:03.199Z,94885.98
2018-07-31T13:02:29.617Z,94894.50
2018-07-31T13:04:56.062Z,94899.47
2018-07-31T13:07:22.500Z,94897.03
2018-07-31T13:09:48.889Z,94888.98
2018-07-31T13:12:15.383Z,94892.27
2018-07-31T13:14:41.788Z,94894.44
2018-07-31T13:17:08.304Z,94894.30
2018-07-31T13:19:34.669Z,94886.47
2018-07-31T13:22:01.057Z,94891.73
2018-07-31T13:24:27.454Z,94888.61
2018-07-31T13:26:53.811Z,94887.92
2018-07-31T13:29:20.292Z,94901.13
2018-07-31T13:31:46.717Z,94908.34
2018-07-31T13:34:13.083Z,94910.59
2018-07-31T13:36:39.486Z,94908.66
2018-07-31T13:39:05.932Z,94919.63
2018-07-31T13:41:32.316Z,94920.58
2018-07-31T13:43:58.766Z,94912.42
2018-07-31T13:46:25.074Z,94911.88
2018-07-31T13:48:51.416Z,94904.05
2018-07-31T13:51:17.824Z,94901.58
2018-07-31T13:53:44.243Z,94901.11
2018-07-31T13:56:10.586Z,94897.25
2018-07-31T13:58:36.935Z,94893.51
2018-07-31T14:01:03.260Z,94896.84
2018-07-31T14:03:29.628Z,94889.63
2018-07-31T14:05:56.074Z,94893.16
2018-07-31T14:08:22.488Z,94884.73
2018-07-31T14:10:49.000Z,94891.61
2018-07-31T14:13:15.375Z,94888.61
2018-07-31T14:15:41.717Z,94896.02
2018-07-31T14:18:08.088Z,94888.45
2018-07-31T14:20:34.534Z,94893.64
2018-07-31T14:23:01.069Z,94893.77
2018-07-31T14:25:27.423Z,94895.53
2018-07-31T14:27:53.865Z,94895.64
2018-07-31T14:30:20.282Z,94891.56
2018-07-31T14:32:46.618Z,94895.86
2018-07-31T14:35:12.941Z,94893.75
2018-07-31T14:37:39.283Z,94896.47
2018-07-31T14:40:05.640Z,94895.30
2018-07-31T14:42:31.991Z,94904.20
2018-07-31T14:44:58.373Z,94903.80
2018-07-31T14:47:24.702Z,94913.12
2018-07-31T14:49:51.137Z,94912.73
2018-07-31T14:52:17.504Z,94917.49
2018-07-31T14:54:43.913Z,94916.80
2018-07-31T14:57:10.306Z,94919.03
2018-07-31T14:59:36.696Z,94909.52
2018-07-31T15:02:03.088Z,94914.75
2018-07-31T15:04:29.539Z,94906.03
2018-07-31T15:06:55.933Z,94911.22
2018-07-31T15:09:22.275Z,94902.97
2018-07-31T15:11:48.603Z,94900.34
2018-07-31T15:14:15.025Z,94902.58
2018-07-31T15:16:42.211Z,94902.09
2018-07-31T15:19:08.645Z,94907.20
2018-07-31T15:21:34.995Z,94906.58
2018-07-31T15:24:01.442Z,94909.70
2018-07-31T15:26:27.822Z,94910.12
2018-07-31T15:28:54.155Z,94909.78
2018-07-31T15:31:20.519Z,94910.68
2018-07-31T15:33:46.907Z,94910.59
2018-07-31T15:36:13.266Z,94914.76
2018-07-31T15:38:39.906Z,94919.56
2018-07-31T15:41:06.249Z,94916.63
2018-07-31T15:43:32.597Z,94919.03
2018-07-31T15:45:59.003Z,94918.48
2018-07-31T15:48:25.430Z,94920.43
2018-07-31T15:50:51.831Z,94909.83
2018-07-31T15:53:18.230Z,94920.38
2018-07-31T15:55:44.568Z,94921.05
2018-07-31T15:58:10.949Z,94908.80
2018-07-31T16:00:37.313Z,94912.03
2018-07-31T16:03:03.663Z,94917.63
2018-07-31T16:05:30.034Z,94914.63
2018-07-31T16:07:56.392Z,94917.83
2018-07-31T16:10:22.724Z,94913.45
2018-07-31T16:12:49.061Z,94915.63
2018-07-31T16:15:15.554Z,94912.02
2018-07-31T16:17:41.943Z,94912.28
2018-07-31T16:20:08.414Z,94904.53
2018-07-31T16:22:34.784Z,94900.45
2018-07-31T16:25:01.144Z,94898.61
2018-07-31T16:27:27.539Z,94902.83
2018-07-31T16:29:53.913Z,94903.89
2018-07-31T16:32:20.301Z,94905.71
2018-07-31T16:34:46.649Z,94904.65
2018-07-31T16:37:13.012Z,94900.86
2018-07-31T16:39:39.374Z,94902.63
2018-07-31T16:42:05.699Z,94905.15
2018-07-31T16:44:32.027Z,94904.33
2018-07-31T16:46:58.425Z,94904.45
2018-07-31T16:49:24.817Z,94906.67
2018-07-31T16:51:51.132Z,94908.78
2018-07-31T16:54:17.523Z,94904.91
2018-07-31T16:56:43.847Z,94907.61
2018-07-31T16:59:10.216Z,94912.22
2018-07-31T17:01:36.550Z,94911.13
2018-07-31T17:04:02.946Z,94911.42
2018-07-31T17:06:29.267Z,94915.06
2018-07-31T17:08:55.641Z,94918.67
2018-07-31T17:11:21.974Z,94926.41
2018-07-31T17:13:48.301Z,94924.97
2018-07-31T17:16:14.679Z,94922.59
2018-07-31T17:18:41.028Z,94921.36
2018-07-31T17:21:07.397Z,94923.27
2018-07-31T17:23:33.760Z,94926.38
2018-07-31T17:26:00.115Z,94929.37
2018-07-31T17:28:26.460Z,94925.14
2018-07-31T17:30:52.789Z,94937.84
2018-07-31T17:33:19.176Z,94933.50
2018-07-31T17:35:45.527Z,94943.51
2018-07-31T17:38:11.875Z,94951.09
2018-07-31T17:40:38.268Z,94959.11
2018-07-31T17:43:04.604Z,94951.73
2018-07-31T17:45:30.985Z,94955.23
2018-07-31T17:47:57.413Z,94962.16
2018-07-31T17:50:23.805Z,94963.19
2018-07-31T17:52:50.198Z,94963.20
2018-07-31T17:55:16.571Z,94969.66
2018-07-31T17:57:43.103Z,94968.30
2018-07-31T18:00:09.446Z,94972.49
2018-07-31T18:02:35.761Z,94976.45
2018-07-31T18:05:02.094Z,94979.03
2018-07-31T18:07:28.585Z,94975.16
2018-07-31T18:09:54.947Z,94974.30
2018-07-31T18:12:21.319Z,94981.62
2018-07-31T18:14:47.695Z,94983.56
2018-07-31T18:17:14.124Z,94995.34
2018-07-31T18:19:40.518Z,94995.38
2018-07-31T18:22:06.855Z,95003.18
2018-07-31T18:24:33.314Z,95000.85
2018-07-31T18:26:59.651Z,94997.38
2018-07-31T18:29:26.034Z,95006.21
2018-07-31T18:31:52.406Z,94995.98
2018-07-31T18:34:18.794Z,94992.25
2018-07-31T18:36:45.130Z,94996.78
2018-07-31T18:39:11.458Z,95002.27
2018-07-31T18:41:37.874Z,94999.66
2018-07-31T18:44:04.246Z,95004.83
2018-07-31T18:46:30.729Z,95007.13
2018-07-31T18:48:57.109Z,95007.38
2018-07-31T18:51:23.514Z,94998.32
2018-07-31T18:53:49.904Z,95017.28
2018-07-31T18:56:16.261Z,95013.13
2018-07-31T18:58:42.630Z,95010.80
2018-07-31T19:01:09.149Z,95011.78
2018-07-31T19:03:35.501Z,95009.92
2018-07-31T19:06:01.863Z,95007.81
2018-07-31T19:08:28.326Z,95002.73
2018-07-31T19:10:54.676Z,95000.73
2018-07-31T19:13:21.061Z,94994.70
2018-07-31T19:15:47.460Z,94996.40
2018-07-31T19:18:13.864Z,94998.81
2018-07-31T19:20:40.279Z,95001.39
2018-07-31T19:23:06.634Z,95008.08
2018-07-31T19:25:32.967Z,94995.33
2018-07-31T19:27:59.401Z,94992.86
2018-07-31T19:30:25.713Z,94995.56
2018-07-31T19:32:52.044Z,94998.15
2018-07-31T19:35:18.442Z,94996.69
2018-07-31T19:37:44.926Z,95005.80
2018-07-31T19:40:11.348Z,95002.12
2018-07-31T19:42:37.684Z,95002.22
2018-07-31T19:45:04.177Z,95005.23
2018-07-31T19:47:30.546Z,95004.83
2018-07-31T19:49:56.903Z,95007.08
2018-07-31T19:52:23.286Z,94998.52
2018-07-31T19:54:49.683Z,94992.13
2018-07-31T19:57:16.173Z,95000.17
2018-07-31T19:59:42.663Z,95003.78
2018-07-31T20:02:09.067Z,95003.11
2018-07-31T20:04:35.509Z,95000.81
2018-07-31T20:07:01.937Z,94998.15
2018-07-31T20:09:28.447Z,95002.48
2018-07-31T20:11:55.071Z,94995.98
2018-07-31T20:14:21.503Z,94997.98
2018-07-31T20:16:47.868Z,94999.18
2018-07-31T20:19:14.203Z,95005.76
2018-07-31T20:21:40.528Z,95000.91
2018-07-31T20:24:07.021Z,95013.44
2018-07-31T20:26:33.407Z,95015.30
2018-07-31T20:28:59.777Z,95008.82
2018-07-31T20:31:26.195Z,95009.18
2018-07-31T20:33:52.535Z,95001.20
2018-07-31T20:36:18.890Z,95005.36
2018-07-31T20:38:45.251Z,95004.55
2018-07-31T20:41:11.763Z,95009.70
2018-07-31T20:43:38.098Z,94999.22
2018-07-31T20:46:04.575Z,95002.86
2018-07-31T20:48:30.936Z,94994.65
2018-07-31T20:50:57.265Z,94997.76
2018-07-31T20:53:23.591Z,94998.03
2018-07-31T20:55:49.951Z,94994.41
2018-07-31T20:58:16.360Z,94997.22
2018-07-31T21:00:42.689Z,95011.92
2018-07-31T21:03:09.095Z,95009.45
2018-07-31T21:05:35.423Z,95013.09
2018-07-31T21:08:01.760Z,95018.47
2018-07-31T21:10:28.132Z,95013.73
2018-07-31T21:12:54.574Z,95012.27
2018-07-31T21:15:20.924Z,95020.17
2018-07-31T21:17:47.364Z,95020.95
2018-07-31T21:20:13.676Z,95017.20
2018-07-31T21:22:40.039Z,95015.96
2018-07-31T21:25:06.381Z,95015.45
2018-07-31T21:27:32.739Z,95017.02
2018-07-31T21:29:59.065Z,95017.25
2018-07-31T21:32:25.392Z,95021.61
2018-07-31T21:34:51.759Z,95019.59
2018-07-31T21:37:18.131Z,95018.72
2018-07-31T21:39:44.503Z,95017.07
2018-07-31T21:42:10.866Z,95014.17
2018-07-31T21:44:37.191Z,95013.93
2018-07-31T21:47:03.514Z,95008.37
2018-07-31T21:49:29.859Z,95008.42
2018-07-31T21:51:56.203Z,95010.42
2018-07-31T21:54:22.609Z,95007.97
2018-07-31T21:56:48.977Z,95003.27
2018-07-31T21:59:15.331Z,94997.55
2018-07-31T22:01:41.682Z,95001.58
2018-07-31T22:04:08.074Z,95003.50
2018-07-31T22:06:34.407Z,94998.59
2018-07-31T22:09:00.834Z,94997.00
2018-07-31T22:11:27.239Z,94996.89
2018-07-31T22:13:53.727Z,94997.23
2018-07-31T22:16:20.083Z,95001.64
2018-07-31T22:18:46.437Z,95005.55
2018-07-31T22:21:12.887Z,94994.74
2018-07-31T22:23:39.414Z,94988.87
2018-07-31T22:26:05.756Z,94988.05
2018-07-31T22:28:32.114Z,94987.94
2018-07-31T22:30:58.453Z,94992.81
2018-07-31T22:33:24.811Z,94993.09
2018-07-31T22:35:51.144Z,94994.74
2018-07-31T22:38:17.565Z,94991.34
2018-07-31T22:40:44.058Z,94995.13
2018-07-31T22:43:10.453Z,94986.02
2018-07-31T22:45:36.932Z,94989.00
2018-07-31T22:48:03.323Z,94990.99
2018-07-31T22:50:29.686Z,94985.85
2018-07-31T22:52:56.141Z,94984.61
2018-07-31T22:55:22.574Z,94986.59
2018-07-31T22:57:48.940Z,94981.08
2018-07-31T23:00:15.409Z,94991.80
2018-07-31T23:02:41.878Z,94982.50
2018-07-31T23:05:08.214Z,94984.25
2018-07-31T23:07:34.594Z,94990.64
2018-07-31T23:10:00.928Z,94999.52
2018-07-31T23:12:27.259Z,94994.14
2018-07-31T23:14:53.607Z,94989.30
2018-07-31T23:17:19.958Z,94988.63
2018-07-31T23:19:46.335Z,94983.34
2018-07-31T23:22:12.697Z,94987.99
2018-07-31T23:24:39.055Z,94991.06
2018-07-31T23:27:05.497Z,94988.13
2018-07-31T23:29:31.855Z,94982.69
2018-07-31T23:31:58.223Z,94981.73
2018-07-31T23:34:24.630Z,94978.70
2018-07-31T23:36:51.032Z,94969.52
2018-07-31T23:39:17.394Z,94968.87
2018-07-31T23:41:43.789Z,94976.83
2018-07-31T23:44:10.204Z,94971.73
2018-07-31T23:46:36.540Z,94969.87
2018-07-31T23:49:02.962Z,94974.35
2018-07-31T23:51:29.398Z,94964.78
2018-07-31T23:53:55.802Z,94971.78
2018-07-31T23:56:22.140Z,94972.55
2018-07-31T23:58:48.514Z,94978.12
